sensor_id;sensor_type;location;lat;lon;timestamp;P1;durP1;ratioP1;P2;durP2;ratioP2
72464;SDS011;60471;52.150;4.508;2023-08-31T00:01:32;7.72;;;1.50;;
72464;SDS011;60471;52.150;4.508;2023-08-31T00:03:59;10.88;;;1.60;;
72464;SDS011;60471;52.150;4.508;2023-08-31T00:06:26;8.60;;;1.40;;
72464;SDS011;60471;52.150;4.508;2023-08-31T00:08:52;8.15;;;1.75;;
72464;SDS011;60471;52.150;4.508;2023-08-31T00:11:18;11.95;;;2.00;;
72464;SDS011;60471;52.150;4.508;2023-08-31T00:13:45;11.98;;;1.75;;
72464;SDS011;60471;52.150;4.508;2023-08-31T00:16:12;9.00;;;1.40;;
72464;SDS011;60471;52.150;4.508;2023-08-31T00:18:38;7.65;;;1.92;;
72464;SDS011;60471;52.150;4.508;2023-08-31T00:21:04;13.68;;;2.08;;
72464;SDS011;60471;52.150;4.508;2023-08-31T00:23:30;12.02;;;1.80;;
72464;SDS011;60471;52.150;4.508;2023-08-31T00:25:57;10.50;;;2.00;;
72464;SDS011;60471;52.150;4.508;2023-08-31T00:28:23;10.18;;;1.60;;
72464;SDS011;60471;52.150;4.508;2023-08-31T00:30:51;14.40;;;1.65;;
72464;SDS011;60471;52.150;4.508;2023-08-31T00:33:17;9.52;;;1.65;;
72464;SDS011;60471;52.150;4.508;2023-08-31T00:35:43;7.05;;;1.33;;
72464;SDS011;60471;52.150;4.508;2023-08-31T00:38:12;5.75;;;1.25;;
72464;SDS011;60471;52.150;4.508;2023-08-31T00:40:40;10.95;;;1.30;;
72464;SDS011;60471;52.150;4.508;2023-08-31T00:43:11;6.13;;;1.05;;
72464;SDS011;60471;52.150;4.508;2023-08-31T00:45:41;6.10;;;1.13;;
72464;SDS011;60471;52.150;4.508;2023-08-31T00:48:09;6.53;;;1.33;;
72464;SDS011;60471;52.150;4.508;2023-08-31T00:50:35;6.25;;;1.25;;
72464;SDS011;60471;52.150;4.508;2023-08-31T00:53:02;6.25;;;1.33;;
72464;SDS011;60471;52.150;4.508;2023-08-31T00:55:29;6.85;;;1.20;;
72464;SDS011;60471;52.150;4.508;2023-08-31T00:57:55;8.02;;;1.30;;
72464;SDS011;60471;52.150;4.508;2023-08-31T01:00:24;6.50;;;1.20;;
72464;SDS011;60471;52.150;4.508;2023-08-31T01:03:09;4.47;;;1.13;;
72464;SDS011;60471;52.150;4.508;2023-08-31T01:06:33;9.20;;;1.20;;
72464;SDS011;60471;52.150;4.508;2023-08-31T01:12:12;6.82;;;1.33;;
72464;SDS011;60471;52.150;4.508;2023-08-31T01:14:54;8.20;;;1.52;;
72464;SDS011;60471;52.150;4.508;2023-08-31T01:17:29;11.13;;;1.40;;
72464;SDS011;60471;52.150;4.508;2023-08-31T01:19:58;6.40;;;1.30;;
72464;SDS011;60471;52.150;4.508;2023-08-31T01:22:43;8.98;;;1.50;;
72464;SDS011;60471;52.150;4.508;2023-08-31T01:25:23;10.57;;;1.35;;
72464;SDS011;60471;52.150;4.508;2023-08-31T01:27:50;10.60;;;1.30;;
72464;SDS011;60471;52.150;4.508;2023-08-31T01:30:17;7.50;;;1.38;;
72464;SDS011;60471;52.150;4.508;2023-08-31T01:32:44;6.80;;;1.30;;
72464;SDS011;60471;52.150;4.508;2023-08-31T01:35:14;7.20;;;1.30;;
72464;SDS011;60471;52.150;4.508;2023-08-31T01:43:01;7.25;;;1.27;;
72464;SDS011;60471;52.150;4.508;2023-08-31T01:45:31;8.32;;;1.30;;
72464;SDS011;60471;52.150;4.508;2023-08-31T01:47:59;9.88;;;1.27;;
72464;SDS011;60471;52.150;4.508;2023-08-31T01:50:26;5.70;;;1.45;;
72464;SDS011;60471;52.150;4.508;2023-08-31T01:52:53;10.38;;;1.95;;
72464;SDS011;60471;52.150;4.508;2023-08-31T01:55:19;5.50;;;1.30;;
72464;SDS011;60471;52.150;4.508;2023-08-31T01:57:47;8.60;;;1.70;;
72464;SDS011;60471;52.150;4.508;2023-08-31T02:00:14;8.30;;;1.13;;
72464;SDS011;60471;52.150;4.508;2023-08-31T02:02:43;7.53;;;1.40;;
72464;SDS011;60471;52.150;4.508;2023-08-31T02:05:09;8.73;;;1.30;;
72464;SDS011;60471;52.150;4.508;2023-08-31T02:07:36;11.43;;;1.80;;
72464;SDS011;60471;52.150;4.508;2023-08-31T02:10:03;7.88;;;1.65;;
72464;SDS011;60471;52.150;4.508;2023-08-31T02:12:32;8.98;;;2.03;;
72464;SDS011;60471;52.150;4.508;2023-08-31T02:14:59;8.80;;;1.95;;
72464;SDS011;60471;52.150;4.508;2023-08-31T02:17:25;12.32;;;1.98;;
72464;SDS011;60471;52.150;4.508;2023-08-31T02:19:51;11.68;;;2.10;;
72464;SDS011;60471;52.150;4.508;2023-08-31T02:22:18;10.27;;;2.10;;
72464;SDS011;60471;52.150;4.508;2023-08-31T02:24:44;10.20;;;1.90;;
72464;SDS011;60471;52.150;4.508;2023-08-31T02:27:10;10.65;;;2.13;;
72464;SDS011;60471;52.150;4.508;2023-08-31T02:29:36;10.10;;;1.80;;
72464;SDS011;60471;52.150;4.508;2023-08-31T02:32:06;10.48;;;2.22;;
72464;SDS011;60471;52.150;4.508;2023-08-31T02:34:33;10.20;;;2.10;;
72464;SDS011;60471;52.150;4.508;2023-08-31T02:36:59;8.32;;;1.88;;
72464;SDS011;60471;52.150;4.508;2023-08-31T02:39:25;13.40;;;2.20;;
72464;SDS011;60471;52.150;4.508;2023-08-31T02:41:51;11.43;;;2.25;;
72464;SDS011;60471;52.150;4.508;2023-08-31T02:44:18;13.35;;;2.08;;
72464;SDS011;60471;52.150;4.508;2023-08-31T02:46:44;11.32;;;2.15;;
72464;SDS011;60471;52.150;4.508;2023-08-31T02:49:10;9.73;;;2.05;;
72464;SDS011;60471;52.150;4.508;2023-08-31T02:51:36;7.95;;;2.15;;
72464;SDS011;60471;52.150;4.508;2023-08-31T02:54:02;12.43;;;2.28;;
72464;SDS011;60471;52.150;4.508;2023-08-31T02:56:29;7.68;;;1.90;;
72464;SDS011;60471;52.150;4.508;2023-08-31T02:58:55;11.93;;;2.00;;
72464;SDS011;60471;52.150;4.508;2023-08-31T03:01:21;7.32;;;1.90;;
72464;SDS011;60471;52.150;4.508;2023-08-31T03:03:49;11.23;;;1.77;;
72464;SDS011;60471;52.150;4.508;2023-08-31T03:06:15;11.48;;;2.17;;
72464;SDS011;60471;52.150;4.508;2023-08-31T03:08:41;13.77;;;2.13;;
72464;SDS011;60471;52.150;4.508;2023-08-31T03:11:07;10.77;;;2.45;;
72464;SDS011;60471;52.150;4.508;2023-08-31T03:13:34;9.77;;;1.95;;
72464;SDS011;60471;52.150;4.508;2023-08-31T03:16:00;8.95;;;1.85;;
72464;SDS011;60471;52.150;4.508;2023-08-31T03:18:27;10.13;;;1.90;;
72464;SDS011;60471;52.150;4.508;2023-08-31T03:20:54;8.70;;;1.92;;
72464;SDS011;60471;52.150;4.508;2023-08-31T03:23:21;11.50;;;1.80;;
72464;SDS011;60471;52.150;4.508;2023-08-31T03:25:47;9.80;;;1.85;;
72464;SDS011;60471;52.150;4.508;2023-08-31T03:28:14;10.85;;;2.03;;
72464;SDS011;60471;52.150;4.508;2023-08-31T03:30:40;11.95;;;2.03;;
72464;SDS011;60471;52.150;4.508;2023-08-31T03:33:06;10.57;;;1.70;;
72464;SDS011;60471;52.150;4.508;2023-08-31T03:35:32;9.88;;;1.63;;
72464;SDS011;60471;52.150;4.508;2023-08-31T03:37:59;11.70;;;1.75;;
72464;SDS011;60471;52.150;4.508;2023-08-31T03:40:26;13.95;;;2.10;;
72464;SDS011;60471;52.150;4.508;2023-08-31T03:42:52;10.98;;;1.65;;
72464;SDS011;60471;52.150;4.508;2023-08-31T03:45:20;10.70;;;1.80;;
72464;SDS011;60471;52.150;4.508;2023-08-31T03:47:46;15.15;;;2.20;;
72464;SDS011;60471;52.150;4.508;2023-08-31T03:50:12;15.40;;;2.40;;
72464;SDS011;60471;52.150;4.508;2023-08-31T03:52:38;11.50;;;1.90;;
72464;SDS011;60471;52.150;4.508;2023-08-31T03:55:05;10.68;;;1.95;;
72464;SDS011;60471;52.150;4.508;2023-08-31T03:57:31;9.82;;;1.88;;
72464;SDS011;60471;52.150;4.508;2023-08-31T03:59:58;12.68;;;2.13;;
72464;SDS011;60471;52.150;4.508;2023-08-31T04:02:24;9.90;;;1.92;;
72464;SDS011;60471;52.150;4.508;2023-08-31T04:04:50;9.73;;;1.67;;
72464;SDS011;60471;52.150;4.508;2023-08-31T04:07:16;8.50;;;1.70;;
72464;SDS011;60471;52.150;4.508;2023-08-31T04:09:42;9.88;;;1.90;;
72464;SDS011;60471;52.150;4.508;2023-08-31T04:12:09;14.48;;;2.00;;
72464;SDS011;60471;52.150;4.508;2023-08-31T04:14:35;28.70;;;3.15;;
72464;SDS011;60471;52.150;4.508;2023-08-31T04:17:01;16.35;;;3.05;;
72464;SDS011;60471;52.150;4.508;2023-08-31T04:19:30;17.95;;;2.95;;
72464;SDS011;60471;52.150;4.508;2023-08-31T04:21:56;16.48;;;3.25;;
72464;SDS011;60471;52.150;4.508;2023-08-31T04:24:23;18.90;;;2.50;;
72464;SDS011;60471;52.150;4.508;2023-08-31T04:26:49;14.32;;;2.38;;
72464;SDS011;60471;52.150;4.508;2023-08-31T04:29:17;8.20;;;1.55;;
72464;SDS011;60471;52.150;4.508;2023-08-31T04:31:43;13.15;;;1.88;;
72464;SDS011;60471;52.150;4.508;2023-08-31T04:34:09;12.70;;;1.92;;
72464;SDS011;60471;52.150;4.508;2023-08-31T04:36:35;14.32;;;2.08;;
72464;SDS011;60471;52.150;4.508;2023-08-31T04:39:01;11.88;;;2.30;;
72464;SDS011;60471;52.150;4.508;2023-08-31T04:41:29;16.45;;;2.03;;
72464;SDS011;60471;52.150;4.508;2023-08-31T04:43:55;9.65;;;1.95;;
72464;SDS011;60471;52.150;4.508;2023-08-31T04:46:21;11.13;;;1.90;;
72464;SDS011;60471;52.150;4.508;2023-08-31T04:48:47;10.63;;;1.92;;
72464;SDS011;60471;52.150;4.508;2023-08-31T04:51:33;9.20;;;1.85;;
72464;SDS011;60471;52.150;4.508;2023-08-31T04:54:05;7.32;;;1.70;;
72464;SDS011;60471;52.150;4.508;2023-08-31T04:56:32;11.50;;;1.85;;
72464;SDS011;60471;52.150;4.508;2023-08-31T04:58:59;12.45;;;1.98;;
72464;SDS011;60471;52.150;4.508;2023-08-31T05:01:26;10.35;;;2.08;;
72464;SDS011;60471;52.150;4.508;2023-08-31T05:03:52;13.45;;;2.35;;
72464;SDS011;60471;52.150;4.508;2023-08-31T05:06:19;16.10;;;2.83;;
72464;SDS011;60471;52.150;4.508;2023-08-31T05:08:48;14.10;;;2.35;;
72464;SDS011;60471;52.150;4.508;2023-08-31T05:11:15;18.05;;;2.67;;
72464;SDS011;60471;52.150;4.508;2023-08-31T05:13:42;20.67;;;2.45;;
72464;SDS011;60471;52.150;4.508;2023-08-31T05:16:08;18.88;;;2.50;;
72464;SDS011;60471;52.150;4.508;2023-08-31T05:18:35;15.88;;;2.67;;
72464;SDS011;60471;52.150;4.508;2023-08-31T05:21:02;16.42;;;2.78;;
72464;SDS011;60471;52.150;4.508;2023-08-31T05:23:29;14.30;;;2.65;;
72464;SDS011;60471;52.150;4.508;2023-08-31T05:25:56;13.75;;;2.47;;
72464;SDS011;60471;52.150;4.508;2023-08-31T05:28:22;15.80;;;2.55;;
72464;SDS011;60471;52.150;4.508;2023-08-31T05:30:53;15.32;;;2.40;;
72464;SDS011;60471;52.150;4.508;2023-08-31T05:33:23;13.68;;;2.20;;
72464;SDS011;60471;52.150;4.508;2023-08-31T05:35:51;14.93;;;2.30;;
72464;SDS011;60471;52.150;4.508;2023-08-31T05:38:17;16.60;;;2.30;;
72464;SDS011;60471;52.150;4.508;2023-08-31T05:40:43;16.13;;;2.70;;
72464;SDS011;60471;52.150;4.508;2023-08-31T05:43:11;12.85;;;2.47;;
72464;SDS011;60471;52.150;4.508;2023-08-31T05:45:41;11.82;;;2.58;;
72464;SDS011;60471;52.150;4.508;2023-08-31T05:48:08;15.15;;;2.40;;
72464;SDS011;60471;52.150;4.508;2023-08-31T05:50:34;16.13;;;2.63;;
72464;SDS011;60471;52.150;4.508;2023-08-31T05:53:02;13.18;;;2.50;;
72464;SDS011;60471;52.150;4.508;2023-08-31T05:55:30;18.23;;;2.50;;
72464;SDS011;60471;52.150;4.508;2023-08-31T05:57:56;12.27;;;2.58;;
72464;SDS011;60471;52.150;4.508;2023-08-31T06:00:22;15.07;;;2.45;;
72464;SDS011;60471;52.150;4.508;2023-08-31T06:02:48;12.27;;;2.13;;
72464;SDS011;60471;52.150;4.508;2023-08-31T06:05:15;10.20;;;2.00;;
72464;SDS011;60471;52.150;4.508;2023-08-31T06:07:44;16.02;;;2.60;;
72464;SDS011;60471;52.150;4.508;2023-08-31T06:10:11;10.45;;;2.28;;
72464;SDS011;60471;52.150;4.508;2023-08-31T06:12:37;12.48;;;2.33;;
72464;SDS011;60471;52.150;4.508;2023-08-31T06:15:04;13.38;;;2.22;;
72464;SDS011;60471;52.150;4.508;2023-08-31T06:17:31;14.57;;;2.03;;
72464;SDS011;60471;52.150;4.508;2023-08-31T06:19:57;12.15;;;2.60;;
72464;SDS011;60471;52.150;4.508;2023-08-31T06:22:23;13.57;;;2.10;;
72464;SDS011;60471;52.150;4.508;2023-08-31T06:24:50;10.75;;;2.25;;
72464;SDS011;60471;52.150;4.508;2023-08-31T06:27:17;13.38;;;2.28;;
72464;SDS011;60471;52.150;4.508;2023-08-31T06:29:44;9.43;;;1.95;;
72464;SDS011;60471;52.150;4.508;2023-08-31T06:32:10;17.67;;;2.47;;
72464;SDS011;60471;52.150;4.508;2023-08-31T06:34:37;11.57;;;1.90;;
72464;SDS011;60471;52.150;4.508;2023-08-31T06:37:03;13.82;;;2.63;;
72464;SDS011;60471;52.150;4.508;2023-08-31T06:39:29;10.57;;;1.92;;
72464;SDS011;60471;52.150;4.508;2023-08-31T06:41:55;12.98;;;2.25;;
72464;SDS011;60471;52.150;4.508;2023-08-31T06:44:22;11.35;;;2.17;;
72464;SDS011;60471;52.150;4.508;2023-08-31T06:46:48;11.85;;;2.58;;
72464;SDS011;60471;52.150;4.508;2023-08-31T06:49:14;10.82;;;1.95;;
72464;SDS011;60471;52.150;4.508;2023-08-31T06:51:41;11.48;;;1.92;;
72464;SDS011;60471;52.150;4.508;2023-08-31T06:54:07;12.80;;;2.05;;
72464;SDS011;60471;52.150;4.508;2023-08-31T06:56:33;9.82;;;1.83;;
72464;SDS011;60471;52.150;4.508;2023-08-31T06:59:01;12.68;;;2.10;;
72464;SDS011;60471;52.150;4.508;2023-08-31T07:01:28;8.55;;;1.90;;
72464;SDS011;60471;52.150;4.508;2023-08-31T07:03:55;12.02;;;2.35;;
72464;SDS011;60471;52.150;4.508;2023-08-31T07:06:21;8.95;;;2.10;;
72464;SDS011;60471;52.150;4.508;2023-08-31T07:08:48;12.10;;;1.90;;
72464;SDS011;60471;52.150;4.508;2023-08-31T07:11:14;12.07;;;2.30;;
72464;SDS011;60471;52.150;4.508;2023-08-31T07:13:41;12.45;;;1.80;;
72464;SDS011;60471;52.150;4.508;2023-08-31T07:16:07;10.32;;;1.98;;
72464;SDS011;60471;52.150;4.508;2023-08-31T07:18:34;12.50;;;1.80;;
72464;SDS011;60471;52.150;4.508;2023-08-31T07:21:02;9.10;;;1.83;;
72464;SDS011;60471;52.150;4.508;2023-08-31T07:23:30;11.65;;;1.90;;
72464;SDS011;60471;52.150;4.508;2023-08-31T07:25:57;9.60;;;1.70;;
72464;SDS011;60471;52.150;4.508;2023-08-31T07:28:27;11.85;;;2.15;;
72464;SDS011;60471;52.150;4.508;2023-08-31T07:31:05;9.05;;;2.10;;
72464;SDS011;60471;52.150;4.508;2023-08-31T07:33:33;14.43;;;1.98;;
72464;SDS011;60471;52.150;4.508;2023-08-31T07:36:01;10.80;;;1.70;;
72464;SDS011;60471;52.150;4.508;2023-08-31T07:38:29;7.72;;;1.52;;
72464;SDS011;60471;52.150;4.508;2023-08-31T07:40:57;9.40;;;1.73;;
72464;SDS011;60471;52.150;4.508;2023-08-31T07:43:24;8.35;;;1.77;;
72464;SDS011;60471;52.150;4.508;2023-08-31T07:45:52;9.23;;;1.52;;
72464;SDS011;60471;52.150;4.508;2023-08-31T07:48:19;8.98;;;1.52;;
72464;SDS011;60471;52.150;4.508;2023-08-31T07:50:45;12.45;;;1.95;;
72464;SDS011;60471;52.150;4.508;2023-08-31T07:53:12;8.52;;;1.63;;
72464;SDS011;60471;52.150;4.508;2023-08-31T07:55:39;6.03;;;1.20;;
72464;SDS011;60471;52.150;4.508;2023-08-31T07:58:05;12.07;;;1.95;;
72464;SDS011;60471;52.150;4.508;2023-08-31T08:00:32;7.15;;;1.30;;
72464;SDS011;60471;52.150;4.508;2023-08-31T08:02:58;8.77;;;1.63;;
72464;SDS011;60471;52.150;4.508;2023-08-31T08:05:25;5.82;;;1.30;;
72464;SDS011;60471;52.150;4.508;2023-08-31T08:07:52;7.45;;;1.42;;
72464;SDS011;60471;52.150;4.508;2023-08-31T08:10:19;10.20;;;1.90;;
72464;SDS011;60471;52.150;4.508;2023-08-31T08:12:45;8.70;;;1.58;;
72464;SDS011;60471;52.150;4.508;2023-08-31T08:15:12;9.32;;;1.50;;
72464;SDS011;60471;52.150;4.508;2023-08-31T08:17:39;6.93;;;1.45;;
72464;SDS011;60471;52.150;4.508;2023-08-31T08:20:06;9.18;;;1.70;;
72464;SDS011;60471;52.150;4.508;2023-08-31T08:22:33;8.63;;;1.67;;
72464;SDS011;60471;52.150;4.508;2023-08-31T08:24:59;10.30;;;1.98;;
72464;SDS011;60471;52.150;4.508;2023-08-31T08:27:25;9.90;;;1.70;;
72464;SDS011;60471;52.150;4.508;2023-08-31T08:29:52;9.35;;;1.70;;
72464;SDS011;60471;52.150;4.508;2023-08-31T08:32:19;8.40;;;1.83;;
72464;SDS011;60471;52.150;4.508;2023-08-31T08:34:45;8.68;;;1.83;;
72464;SDS011;60471;52.150;4.508;2023-08-31T08:37:11;8.25;;;1.80;;
72464;SDS011;60471;52.150;4.508;2023-08-31T08:39:37;9.13;;;1.55;;
72464;SDS011;60471;52.150;4.508;2023-08-31T08:42:04;8.27;;;1.50;;
72464;SDS011;60471;52.150;4.508;2023-08-31T08:44:33;9.25;;;1.95;;
72464;SDS011;60471;52.150;4.508;2023-08-31T08:47:01;15.13;;;2.00;;
72464;SDS011;60471;52.150;4.508;2023-08-31T08:49:30;10.23;;;1.75;;
72464;SDS011;60471;52.150;4.508;2023-08-31T08:51:58;5.82;;;1.60;;
72464;SDS011;60471;52.150;4.508;2023-08-31T08:54:25;11.80;;;1.70;;
72464;SDS011;60471;52.150;4.508;2023-08-31T08:56:53;8.15;;;1.58;;
72464;SDS011;60471;52.150;4.508;2023-08-31T08:59:19;7.57;;;1.52;;
72464;SDS011;60471;52.150;4.508;2023-08-31T09:01:45;5.55;;;1.25;;
72464;SDS011;60471;52.150;4.508;2023-08-31T09:04:12;9.38;;;1.50;;
72464;SDS011;60471;52.150;4.508;2023-08-31T09:06:38;7.88;;;1.40;;
72464;SDS011;60471;52.150;4.508;2023-08-31T09:09:07;8.65;;;1.40;;
72464;SDS011;60471;52.150;4.508;2023-08-31T09:11:34;10.68;;;1.40;;
72464;SDS011;60471;52.150;4.508;2023-08-31T09:14:13;6.72;;;1.33;;
72464;SDS011;60471;52.150;4.508;2023-08-31T09:16:49;9.35;;;1.70;;
72464;SDS011;60471;52.150;4.508;2023-08-31T09:19:26;7.32;;;1.40;;
72464;SDS011;60471;52.150;4.508;2023-08-31T09:21:55;7.03;;;1.52;;
72464;SDS011;60471;52.150;4.508;2023-08-31T09:24:23;7.03;;;1.30;;
72464;SDS011;60471;52.150;4.508;2023-08-31T09:26:52;8.50;;;1.35;;
72464;SDS011;60471;52.150;4.508;2023-08-31T09:29:21;8.85;;;1.65;;
72464;SDS011;60471;52.150;4.508;2023-08-31T09:31:48;7.88;;;1.50;;
72464;SDS011;60471;52.150;4.508;2023-08-31T09:34:14;8.63;;;1.30;;
72464;SDS011;60471;52.150;4.508;2023-08-31T09:36:42;7.75;;;1.48;;
72464;SDS011;60471;52.150;4.508;2023-08-31T09:39:09;4.53;;;1.30;;
72464;SDS011;60471;52.150;4.508;2023-08-31T09:41:53;7.18;;;1.27;;
72464;SDS011;60471;52.150;4.508;2023-08-31T09:44:21;5.15;;;1.00;;
72464;SDS011;60471;52.150;4.508;2023-08-31T09:46:48;13.95;;;1.65;;
72464;SDS011;60471;52.150;4.508;2023-08-31T09:49:15;10.23;;;1.10;;
72464;SDS011;60471;52.150;4.508;2023-08-31T09:51:44;5.93;;;1.20;;
72464;SDS011;60471;52.150;4.508;2023-08-31T09:54:13;7.75;;;1.40;;
72464;SDS011;60471;52.150;4.508;2023-08-31T09:56:43;10.82;;;1.77;;
72464;SDS011;60471;52.150;4.508;2023-08-31T09:59:12;8.35;;;1.30;;
72464;SDS011;60471;52.150;4.508;2023-08-31T10:01:40;10.98;;;1.40;;
72464;SDS011;60471;52.150;4.508;2023-08-31T10:04:08;6.82;;;1.33;;
72464;SDS011;60471;52.150;4.508;2023-08-31T10:06:35;8.30;;;1.27;;
72464;SDS011;60471;52.150;4.508;2023-08-31T10:09:03;7.80;;;1.48;;
72464;SDS011;60471;52.150;4.508;2023-08-31T10:11:30;6.53;;;1.42;;
72464;SDS011;60471;52.150;4.508;2023-08-31T10:13:57;6.63;;;1.23;;
72464;SDS011;60471;52.150;4.508;2023-08-31T10:16:25;6.28;;;1.38;;
72464;SDS011;60471;52.150;4.508;2023-08-31T10:18:54;7.93;;;1.50;;
72464;SDS011;60471;52.150;4.508;2023-08-31T10:21:22;7.75;;;1.20;;
72464;SDS011;60471;52.150;4.508;2023-08-31T10:23:49;7.50;;;1.48;;
72464;SDS011;60471;52.150;4.508;2023-08-31T10:26:25;8.30;;;1.55;;
72464;SDS011;60471;52.150;4.508;2023-08-31T10:28:57;9.35;;;1.27;;
72464;SDS011;60471;52.150;4.508;2023-08-31T10:31:28;8.70;;;1.35;;
72464;SDS011;60471;52.150;4.508;2023-08-31T10:34:04;10.95;;;1.27;;
72464;SDS011;60471;52.150;4.508;2023-08-31T10:36:39;6.85;;;1.20;;
72464;SDS011;60471;52.150;4.508;2023-08-31T10:41:54;6.43;;;1.20;;
72464;SDS011;60471;52.150;4.508;2023-08-31T10:44:23;9.38;;;1.30;;
72464;SDS011;60471;52.150;4.508;2023-08-31T10:46:58;8.77;;;1.40;;
72464;SDS011;60471;52.150;4.508;2023-08-31T10:49:29;10.68;;;1.67;;
72464;SDS011;60471;52.150;4.508;2023-08-31T10:52:17;5.97;;;1.02;;
72464;SDS011;60471;52.150;4.508;2023-08-31T10:54:51;5.68;;;1.25;;
72464;SDS011;60471;52.150;4.508;2023-08-31T10:57:29;9.40;;;1.42;;
72464;SDS011;60471;52.150;4.508;2023-08-31T10:59:57;8.07;;;1.35;;
72464;SDS011;60471;52.150;4.508;2023-08-31T11:02:28;6.07;;;1.10;;
72464;SDS011;60471;52.150;4.508;2023-08-31T11:07:44;8.43;;;1.45;;
72464;SDS011;60471;52.150;4.508;2023-08-31T11:12:43;6.93;;;1.52;;
72464;SDS011;60471;52.150;4.508;2023-08-31T11:15:13;7.75;;;1.40;;
72464;SDS011;60471;52.150;4.508;2023-08-31T11:17:44;7.90;;;1.38;;
72464;SDS011;60471;52.150;4.508;2023-08-31T11:20:16;8.30;;;1.33;;
72464;SDS011;60471;52.150;4.508;2023-08-31T11:22:50;7.82;;;1.52;;
72464;SDS011;60471;52.150;4.508;2023-08-31T11:25:20;7.60;;;1.20;;
72464;SDS011;60471;52.150;4.508;2023-08-31T11:27:52;9.23;;;1.38;;
72464;SDS011;60471;52.150;4.508;2023-08-31T11:30:31;10.30;;;1.67;;
72464;SDS011;60471;52.150;4.508;2023-08-31T11:33:03;7.53;;;1.30;;
72464;SDS011;60471;52.150;4.508;2023-08-31T11:35:41;7.88;;;1.38;;
72464;SDS011;60471;52.150;4.508;2023-08-31T11:38:10;7.90;;;1.30;;
72464;SDS011;60471;52.150;4.508;2023-08-31T11:40:36;13.43;;;1.65;;
72464;SDS011;60471;52.150;4.508;2023-08-31T11:43:06;8.77;;;1.30;;
72464;SDS011;60471;52.150;4.508;2023-08-31T11:45:33;7.07;;;1.40;;
72464;SDS011;60471;52.150;4.508;2023-08-31T11:48:03;6.78;;;1.40;;
72464;SDS011;60471;52.150;4.508;2023-08-31T11:50:31;7.18;;;1.30;;
72464;SDS011;60471;52.150;4.508;2023-08-31T11:52:58;6.32;;;1.42;;
72464;SDS011;60471;52.150;4.508;2023-08-31T11:55:24;6.72;;;1.15;;
72464;SDS011;60471;52.150;4.508;2023-08-31T11:57:51;7.38;;;1.20;;
72464;SDS011;60471;52.150;4.508;2023-08-31T12:00:22;7.40;;;1.30;;
72464;SDS011;60471;52.150;4.508;2023-08-31T12:02:57;10.00;;;1.83;;
72464;SDS011;60471;52.150;4.508;2023-08-31T12:05:27;6.07;;;1.00;;
72464;SDS011;60471;52.150;4.508;2023-08-31T12:07:54;7.65;;;1.38;;
72464;SDS011;60471;52.150;4.508;2023-08-31T12:10:25;7.22;;;1.30;;
72464;SDS011;60471;52.150;4.508;2023-08-31T12:12:52;7.57;;;1.30;;
72464;SDS011;60471;52.150;4.508;2023-08-31T12:15:18;5.95;;;1.23;;
72464;SDS011;60471;52.150;4.508;2023-08-31T12:17:47;5.55;;;1.00;;
72464;SDS011;60471;52.150;4.508;2023-08-31T12:20:24;8.43;;;1.58;;
72464;SDS011;60471;52.150;4.508;2023-08-31T12:22:54;9.55;;;1.30;;
72464;SDS011;60471;52.150;4.508;2023-08-31T12:25:21;7.18;;;1.48;;
72464;SDS011;60471;52.150;4.508;2023-08-31T12:27:48;10.63;;;1.35;;
72464;SDS011;60471;52.150;4.508;2023-08-31T12:30:15;6.70;;;1.17;;
72464;SDS011;60471;52.150;4.508;2023-08-31T12:32:41;6.68;;;1.27;;
72464;SDS011;60471;52.150;4.508;2023-08-31T12:35:08;5.10;;;1.20;;
72464;SDS011;60471;52.150;4.508;2023-08-31T12:37:35;7.75;;;1.35;;
72464;SDS011;60471;52.150;4.508;2023-08-31T12:40:01;5.90;;;1.10;;
72464;SDS011;60471;52.150;4.508;2023-08-31T12:42:31;7.45;;;1.20;;
72464;SDS011;60471;52.150;4.508;2023-08-31T12:44:58;5.72;;;1.27;;
72464;SDS011;60471;52.150;4.508;2023-08-31T12:47:24;7.22;;;1.13;;
72464;SDS011;60471;52.150;4.508;2023-08-31T12:49:50;8.10;;;1.10;;
72464;SDS011;60471;52.150;4.508;2023-08-31T12:52:16;7.95;;;1.52;;
72464;SDS011;60471;52.150;4.508;2023-08-31T12:54:42;7.05;;;1.50;;
72464;SDS011;60471;52.150;4.508;2023-08-31T12:57:09;6.05;;;1.15;;
72464;SDS011;60471;52.150;4.508;2023-08-31T12:59:35;9.75;;;1.35;;
72464;SDS011;60471;52.150;4.508;2023-08-31T13:02:01;5.93;;;1.30;;
72464;SDS011;60471;52.150;4.508;2023-08-31T13:04:32;6.50;;;1.30;;
72464;SDS011;60471;52.150;4.508;2023-08-31T13:06:59;5.70;;;1.33;;
72464;SDS011;60471;52.150;4.508;2023-08-31T13:09:25;8.75;;;1.20;;
72464;SDS011;60471;52.150;4.508;2023-08-31T13:11:51;7.38;;;1.60;;
72464;SDS011;60471;52.150;4.508;2023-08-31T13:14:18;9.68;;;1.50;;
72464;SDS011;60471;52.150;4.508;2023-08-31T13:16:44;7.45;;;1.30;;
72464;SDS011;60471;52.150;4.508;2023-08-31T13:19:10;5.07;;;1.02;;
72464;SDS011;60471;52.150;4.508;2023-08-31T13:21:37;4.75;;;1.05;;
72464;SDS011;60471;52.150;4.508;2023-08-31T13:24:03;5.50;;;1.23;;
72464;SDS011;60471;52.150;4.508;2023-08-31T13:26:29;5.57;;;1.20;;
72464;SDS011;60471;52.150;4.508;2023-08-31T13:28:56;6.78;;;1.40;;
72464;SDS011;60471;52.150;4.508;2023-08-31T13:31:22;6.38;;;1.13;;
72464;SDS011;60471;52.150;4.508;2023-08-31T13:33:48;6.90;;;1.20;;
72464;SDS011;60471;52.150;4.508;2023-08-31T13:36:15;7.07;;;1.30;;
72464;SDS011;60471;52.150;4.508;2023-08-31T13:38:41;5.90;;;1.20;;
72464;SDS011;60471;52.150;4.508;2023-08-31T13:41:07;5.25;;;1.10;;
72464;SDS011;60471;52.150;4.508;2023-08-31T13:43:34;5.75;;;1.30;;
72464;SDS011;60471;52.150;4.508;2023-08-31T13:46:00;7.18;;;1.30;;
72464;SDS011;60471;52.150;4.508;2023-08-31T13:48:26;7.72;;;1.20;;
72464;SDS011;60471;52.150;4.508;2023-08-31T13:50:52;8.55;;;1.42;;
72464;SDS011;60471;52.150;4.508;2023-08-31T13:53:19;6.25;;;1.20;;
72464;SDS011;60471;52.150;4.508;2023-08-31T13:55:45;8.82;;;1.52;;
72464;SDS011;60471;52.150;4.508;2023-08-31T13:58:11;4.88;;;1.20;;
72464;SDS011;60471;52.150;4.508;2023-08-31T14:00:37;7.55;;;1.25;;
72464;SDS011;60471;52.150;4.508;2023-08-31T14:03:05;5.55;;;1.20;;
72464;SDS011;60471;52.150;4.508;2023-08-31T14:05:31;7.53;;;1.20;;
72464;SDS011;60471;52.150;4.508;2023-08-31T14:07:58;6.50;;;1.10;;
72464;SDS011;60471;52.150;4.508;2023-08-31T14:10:27;6.45;;;1.20;;
72464;SDS011;60471;52.150;4.508;2023-08-31T14:12:53;6.82;;;1.15;;
72464;SDS011;60471;52.150;4.508;2023-08-31T14:15:19;6.60;;;1.10;;
72464;SDS011;60471;52.150;4.508;2023-08-31T14:17:46;7.00;;;1.15;;
72464;SDS011;60471;52.150;4.508;2023-08-31T14:20:12;6.82;;;1.35;;
72464;SDS011;60471;52.150;4.508;2023-08-31T14:22:38;6.43;;;1.30;;
72464;SDS011;60471;52.150;4.508;2023-08-31T14:25:10;9.00;;;1.50;;
72464;SDS011;60471;52.150;4.508;2023-08-31T14:27:40;4.57;;;1.15;;
72464;SDS011;60471;52.150;4.508;2023-08-31T14:30:07;8.05;;;1.13;;
72464;SDS011;60471;52.150;4.508;2023-08-31T14:32:33;7.70;;;1.15;;
72464;SDS011;60471;52.150;4.508;2023-08-31T14:35:00;6.00;;;1.00;;
72464;SDS011;60471;52.150;4.508;2023-08-31T14:37:26;11.10;;;1.25;;
72464;SDS011;60471;52.150;4.508;2023-08-31T14:39:52;3.97;;;0.90;;
72464;SDS011;60471;52.150;4.508;2023-08-31T14:42:19;4.65;;;1.00;;
72464;SDS011;60471;52.150;4.508;2023-08-31T14:44:47;6.68;;;1.38;;
72464;SDS011;60471;52.150;4.508;2023-08-31T14:47:14;6.28;;;1.33;;
72464;SDS011;60471;52.150;4.508;2023-08-31T14:49:41;4.78;;;1.00;;
72464;SDS011;60471;52.150;4.508;2023-08-31T14:52:07;4.72;;;1.08;;
72464;SDS011;60471;52.150;4.508;2023-08-31T14:54:33;5.72;;;1.20;;
72464;SDS011;60471;52.150;4.508;2023-08-31T14:57:00;5.45;;;1.20;;
72464;SDS011;60471;52.150;4.508;2023-08-31T14:59:29;9.85;;;1.40;;
72464;SDS011;60471;52.150;4.508;2023-08-31T15:01:55;9.35;;;1.30;;
72464;SDS011;60471;52.150;4.508;2023-08-31T15:04:21;9.00;;;1.10;;